sensor_id;sensor_type;location;lat;lon;timestamp;P1;durP1;ratioP1;P2;durP2;ratioP2
67442;SDS011;54311;51.726;5.154;2022-09-02T00:01:30;3.88;;;2.63;;
67442;SDS011;54311;51.726;5.154;2022-09-02T00:03:56;10.00;;;3.38;;
67442;SDS011;54311;51.726;5.154;2022-09-02T00:06:22;9.43;;;3.42;;
67442;SDS011;54311;51.726;5.154;2022-09-02T00:08:48;4.57;;;3.97;;
67442;SDS011;54311;51.726;5.154;2022-09-02T00:11:15;5.07;;;3.88;;
67442;SDS011;54311;51.726;5.154;2022-09-02T00:13:40;10.38;;;4.10;;
67442;SDS011;54311;51.726;5.154;2022-09-02T00:16:05;4.50;;;4.10;;
67442;SDS011;54311;51.726;5.154;2022-09-02T00:18:31;4.20;;;3.90;;
67442;SDS011;54311;51.726;5.154;2022-09-02T00:20:57;11.93;;;3.92;;
67442;SDS011;54311;51.726;5.154;2022-09-02T00:23:22;2.97;;;2.77;;
67442;SDS011;54311;51.726;5.154;2022-09-02T00:25:47;6.97;;;2.60;;
67442;SDS011;54311;51.726;5.154;2022-09-02T00:28:13;5.80;;;2.90;;
67442;SDS011;54311;51.726;5.154;2022-09-02T00:30:39;6.82;;;3.25;;
67442;SDS011;54311;51.726;5.154;2022-09-02T00:33:05;3.17;;;2.88;;
67442;SDS011;54311;51.726;5.154;2022-09-02T00:35:30;5.47;;;2.97;;
67442;SDS011;54311;51.726;5.154;2022-09-02T00:37:55;3.17;;;2.80;;
67442;SDS011;54311;51.726;5.154;2022-09-02T00:40:20;4.37;;;3.07;;
67442;SDS011;54311;51.726;5.154;2022-09-02T00:42:47;5.57;;;2.97;;
67442;SDS011;54311;51.726;5.154;2022-09-02T00:45:12;3.35;;;3.10;;
67442;SDS011;54311;51.726;5.154;2022-09-02T00:47:38;5.53;;;3.22;;
67442;SDS011;54311;51.726;5.154;2022-09-02T00:50:05;5.20;;;3.33;;
67442;SDS011;54311;51.726;5.154;2022-09-02T00:52:33;11.55;;;3.35;;
67442;SDS011;54311;51.726;5.154;2022-09-02T00:55:07;5.95;;;3.25;;
67442;SDS011;54311;51.726;5.154;2022-09-02T00:57:36;6.45;;;3.47;;
67442;SDS011;54311;51.726;5.154;2022-09-02T01:02:30;11.45;;;3.00;;
67442;SDS011;54311;51.726;5.154;2022-09-02T01:04:59;4.10;;;2.90;;
67442;SDS011;54311;51.726;5.154;2022-09-02T01:07:25;2.70;;;2.58;;
67442;SDS011;54311;51.726;5.154;2022-09-02T01:09:52;5.68;;;3.00;;
67442;SDS011;54311;51.726;5.154;2022-09-02T01:12:19;5.05;;;2.63;;
67442;SDS011;54311;51.726;5.154;2022-09-02T01:14:44;2.97;;;2.77;;
67442;SDS011;54311;51.726;5.154;2022-09-02T01:17:09;7.63;;;2.70;;
67442;SDS011;54311;51.726;5.154;2022-09-02T01:19:36;3.10;;;2.73;;
67442;SDS011;54311;51.726;5.154;2022-09-02T01:22:04;6.80;;;3.10;;
67442;SDS011;54311;51.726;5.154;2022-09-02T01:24:30;8.52;;;3.10;;
67442;SDS011;54311;51.726;5.154;2022-09-02T01:26:57;3.25;;;3.00;;
67442;SDS011;54311;51.726;5.154;2022-09-02T01:29:23;3.00;;;2.78;;
67442;SDS011;54311;51.726;5.154;2022-09-02T01:31:48;3.70;;;2.80;;
67442;SDS011;54311;51.726;5.154;2022-09-02T01:34:13;4.63;;;2.57;;
67442;SDS011;54311;51.726;5.154;2022-09-02T01:36:39;3.33;;;2.80;;
67442;SDS011;54311;51.726;5.154;2022-09-02T01:39:05;5.00;;;3.10;;
67442;SDS011;54311;51.726;5.154;2022-09-02T01:41:31;5.60;;;2.80;;
67442;SDS011;54311;51.726;5.154;2022-09-02T01:43:56;3.83;;;2.53;;
67442;SDS011;54311;51.726;5.154;2022-09-02T01:46:21;7.47;;;3.33;;
67442;SDS011;54311;51.726;5.154;2022-09-02T01:48:47;2.83;;;2.63;;
67442;SDS011;54311;51.726;5.154;2022-09-02T01:51:14;6.38;;;2.90;;
67442;SDS011;54311;51.726;5.154;2022-09-02T01:53:40;3.08;;;2.75;;
67442;SDS011;54311;51.726;5.154;2022-09-02T01:56:05;3.20;;;3.00;;
67442;SDS011;54311;51.726;5.154;2022-09-02T01:58:30;2.97;;;2.80;;
67442;SDS011;54311;51.726;5.154;2022-09-02T02:00:56;7.43;;;3.00;;
67442;SDS011;54311;51.726;5.154;2022-09-02T02:03:21;10.45;;;3.20;;
67442;SDS011;54311;51.726;5.154;2022-09-02T02:05:46;3.20;;;2.72;;
67442;SDS011;54311;51.726;5.154;2022-09-02T02:08:11;3.47;;;2.70;;
67442;SDS011;54311;51.726;5.154;2022-09-02T02:10:39;5.28;;;2.97;;
67442;SDS011;54311;51.726;5.154;2022-09-02T02:13:04;3.08;;;2.88;;
67442;SDS011;54311;51.726;5.154;2022-09-02T02:15:29;3.40;;;3.10;;
67442;SDS011;54311;51.726;5.154;2022-09-02T02:17:54;3.17;;;2.97;;
67442;SDS011;54311;51.726;5.154;2022-09-02T02:20:20;3.33;;;3.03;;
67442;SDS011;54311;51.726;5.154;2022-09-02T02:22:46;7.47;;;3.08;;
67442;SDS011;54311;51.726;5.154;2022-09-02T02:25:12;5.57;;;3.30;;
67442;SDS011;54311;51.726;5.154;2022-09-02T02:27:38;3.35;;;3.25;;
67442;SDS011;54311;51.726;5.154;2022-09-02T02:30:04;6.85;;;4.80;;
67442;SDS011;54311;51.726;5.154;2022-09-02T02:32:30;3.38;;;3.28;;
67442;SDS011;54311;51.726;5.154;2022-09-02T02:34:56;5.07;;;4.03;;
67442;SDS011;54311;51.726;5.154;2022-09-02T02:37:21;6.67;;;3.93;;
67442;SDS011;54311;51.726;5.154;2022-09-02T02:39:46;5.80;;;4.63;;
67442;SDS011;54311;51.726;5.154;2022-09-02T02:42:12;5.37;;;4.97;;
67442;SDS011;54311;51.726;5.154;2022-09-02T02:44:37;5.22;;;4.88;;
67442;SDS011;54311;51.726;5.154;2022-09-02T02:47:03;7.68;;;5.38;;
67442;SDS011;54311;51.726;5.154;2022-09-02T02:49:29;5.55;;;4.93;;
67442;SDS011;54311;51.726;5.154;2022-09-02T02:51:54;5.00;;;4.63;;
67442;SDS011;54311;51.726;5.154;2022-09-02T02:54:19;4.50;;;4.20;;
67442;SDS011;54311;51.726;5.154;2022-09-02T02:56:45;9.13;;;4.70;;
67442;SDS011;54311;51.726;5.154;2022-09-02T02:59:10;5.60;;;4.63;;
67442;SDS011;54311;51.726;5.154;2022-09-02T03:01:35;8.38;;;4.65;;
67442;SDS011;54311;51.726;5.154;2022-09-02T03:04:00;4.72;;;4.05;;
67442;SDS011;54311;51.726;5.154;2022-09-02T03:06:26;5.07;;;4.68;;
67442;SDS011;54311;51.726;5.154;2022-09-02T03:08:51;5.13;;;4.00;;
67442;SDS011;54311;51.726;5.154;2022-09-02T03:11:17;7.55;;;4.30;;
67442;SDS011;54311;51.726;5.154;2022-09-02T03:13:46;5.18;;;4.53;;
67442;SDS011;54311;51.726;5.154;2022-09-02T03:16:11;6.07;;;4.18;;
67442;SDS011;54311;51.726;5.154;2022-09-02T03:18:36;8.57;;;4.20;;
67442;SDS011;54311;51.726;5.154;2022-09-02T03:21:04;6.40;;;4.20;;
67442;SDS011;54311;51.726;5.154;2022-09-02T03:23:31;4.03;;;3.72;;
67442;SDS011;54311;51.726;5.154;2022-09-02T03:25:56;3.93;;;3.73;;
67442;SDS011;54311;51.726;5.154;2022-09-02T03:28:21;8.40;;;3.53;;
67442;SDS011;54311;51.726;5.154;2022-09-02T03:30:46;4.60;;;3.40;;
67442;SDS011;54311;51.726;5.154;2022-09-02T03:33:12;4.97;;;4.00;;
67442;SDS011;54311;51.726;5.154;2022-09-02T03:35:38;4.88;;;3.53;;
67442;SDS011;54311;51.726;5.154;2022-09-02T03:38:04;5.88;;;3.53;;
67442;SDS011;54311;51.726;5.154;2022-09-02T03:40:29;3.95;;;3.72;;
67442;SDS011;54311;51.726;5.154;2022-09-02T03:42:54;4.93;;;3.25;;
67442;SDS011;54311;51.726;5.154;2022-09-02T03:45:21;6.82;;;3.58;;
67442;SDS011;54311;51.726;5.154;2022-09-02T03:47:47;3.55;;;3.30;;
67442;SDS011;54311;51.726;5.154;2022-09-02T03:50:19;3.47;;;3.28;;
67442;SDS011;54311;51.726;5.154;2022-09-02T03:52:45;4.13;;;3.83;;
67442;SDS011;54311;51.726;5.154;2022-09-02T03:55:10;7.37;;;3.67;;
67442;SDS011;54311;51.726;5.154;2022-09-02T03:57:35;3.60;;;3.30;;
67442;SDS011;54311;51.726;5.154;2022-09-02T04:00:01;6.50;;;3.40;;
67442;SDS011;54311;51.726;5.154;2022-09-02T04:02:26;3.90;;;3.55;;
67442;SDS011;54311;51.726;5.154;2022-09-02T04:04:51;3.40;;;3.20;;
67442;SDS011;54311;51.726;5.154;2022-09-02T04:07:16;11.50;;;3.97;;
67442;SDS011;54311;51.726;5.154;2022-09-02T04:09:42;3.27;;;3.00;;
67442;SDS011;54311;51.726;5.154;2022-09-02T04:12:07;4.73;;;3.33;;
67442;SDS011;54311;51.726;5.154;2022-09-02T04:14:32;3.37;;;3.17;;
67442;SDS011;54311;51.726;5.154;2022-09-02T04:16:57;3.70;;;3.40;;
67442;SDS011;54311;51.726;5.154;2022-09-02T04:19:23;3.87;;;3.50;;
67442;SDS011;54311;51.726;5.154;2022-09-02T04:21:48;7.60;;;3.75;;
67442;SDS011;54311;51.726;5.154;2022-09-02T04:24:13;8.93;;;3.63;;
67442;SDS011;54311;51.726;5.154;2022-09-02T04:26:38;7.30;;;3.77;;
67442;SDS011;54311;51.726;5.154;2022-09-02T04:29:04;3.93;;;3.40;;
67442;SDS011;54311;51.726;5.154;2022-09-02T04:31:30;5.75;;;3.80;;
67442;SDS011;54311;51.726;5.154;2022-09-02T04:33:56;7.40;;;3.77;;
67442;SDS011;54311;51.726;5.154;2022-09-02T04:36:22;4.22;;;3.72;;
67442;SDS011;54311;51.726;5.154;2022-09-02T04:38:47;3.72;;;3.53;;
67442;SDS011;54311;51.726;5.154;2022-09-02T04:41:14;3.67;;;3.47;;
67442;SDS011;54311;51.726;5.154;2022-09-02T04:43:39;3.70;;;3.50;;
67442;SDS011;54311;51.726;5.154;2022-09-02T04:46:06;3.88;;;3.55;;
67442;SDS011;54311;51.726;5.154;2022-09-02T04:48:31;4.10;;;3.80;;
67442;SDS011;54311;51.726;5.154;2022-09-02T04:50:57;6.60;;;3.55;;
67442;SDS011;54311;51.726;5.154;2022-09-02T04:53:22;6.43;;;3.67;;
67442;SDS011;54311;51.726;5.154;2022-09-02T04:55:47;6.82;;;4.13;;
67442;SDS011;54311;51.726;5.154;2022-09-02T04:58:12;3.70;;;3.50;;
67442;SDS011;54311;51.726;5.154;2022-09-02T05:00:39;3.83;;;3.53;;
67442;SDS011;54311;51.726;5.154;2022-09-02T05:03:05;5.55;;;3.70;;
67442;SDS011;54311;51.726;5.154;2022-09-02T05:05:31;6.57;;;4.03;;
67442;SDS011;54311;51.726;5.154;2022-09-02T05:07:56;7.10;;;3.65;;
67442;SDS011;54311;51.726;5.154;2022-09-02T05:10:22;4.68;;;3.90;;
67442;SDS011;54311;51.726;5.154;2022-09-02T05:12:48;6.97;;;4.05;;
67442;SDS011;54311;51.726;5.154;2022-09-02T05:15:13;8.60;;;4.18;;
67442;SDS011;54311;51.726;5.154;2022-09-02T05:17:38;4.10;;;3.90;;
67442;SDS011;54311;51.726;5.154;2022-09-02T05:20:04;7.73;;;4.03;;
67442;SDS011;54311;51.726;5.154;2022-09-02T05:22:30;6.15;;;3.65;;
67442;SDS011;54311;51.726;5.154;2022-09-02T05:24:55;4.40;;;4.10;;
67442;SDS011;54311;51.726;5.154;2022-09-02T05:27:21;6.47;;;4.05;;
67442;SDS011;54311;51.726;5.154;2022-09-02T05:29:47;4.35;;;3.95;;
67442;SDS011;54311;51.726;5.154;2022-09-02T05:32:12;4.63;;;3.90;;
67442;SDS011;54311;51.726;5.154;2022-09-02T05:34:37;9.70;;;4.17;;
67442;SDS011;54311;51.726;5.154;2022-09-02T05:37:03;7.55;;;4.20;;
67442;SDS011;54311;51.726;5.154;2022-09-02T05:39:29;15.00;;;4.13;;
67442;SDS011;54311;51.726;5.154;2022-09-02T05:41:54;6.22;;;3.90;;
67442;SDS011;54311;51.726;5.154;2022-09-02T05:44:20;7.78;;;4.03;;
67442;SDS011;54311;51.726;5.154;2022-09-02T05:46:45;4.30;;;4.03;;
67442;SDS011;54311;51.726;5.154;2022-09-02T05:49:10;4.40;;;4.00;;
67442;SDS011;54311;51.726;5.154;2022-09-02T05:51:48;8.48;;;3.97;;
67442;SDS011;54311;51.726;5.154;2022-09-02T05:54:16;8.30;;;4.30;;
67442;SDS011;54311;51.726;5.154;2022-09-02T05:56:42;4.95;;;4.28;;
67442;SDS011;54311;51.726;5.154;2022-09-02T05:59:08;6.72;;;4.22;;
67442;SDS011;54311;51.726;5.154;2022-09-02T06:01:34;8.52;;;4.00;;
67442;SDS011;54311;51.726;5.154;2022-09-02T06:04:00;8.15;;;4.60;;
67442;SDS011;54311;51.726;5.154;2022-09-02T06:06:26;12.52;;;4.10;;
67442;SDS011;54311;51.726;5.154;2022-09-02T06:08:51;4.22;;;3.92;;
67442;SDS011;54311;51.726;5.154;2022-09-02T06:11:17;6.07;;;4.00;;
67442;SDS011;54311;51.726;5.154;2022-09-02T06:13:42;10.63;;;4.55;;
67442;SDS011;54311;51.726;5.154;2022-09-02T06:16:08;8.50;;;4.15;;
67442;SDS011;54311;51.726;5.154;2022-09-02T06:18:34;6.35;;;3.85;;
67442;SDS011;54311;51.726;5.154;2022-09-02T06:21:00;12.50;;;4.32;;
67442;SDS011;54311;51.726;5.154;2022-09-02T06:23:27;4.90;;;4.20;;
67442;SDS011;54311;51.726;5.154;2022-09-02T06:25:52;6.03;;;4.40;;
67442;SDS011;54311;51.726;5.154;2022-09-02T06:28:17;5.17;;;4.43;;
67442;SDS011;54311;51.726;5.154;2022-09-02T06:30:43;7.47;;;4.67;;
67442;SDS011;54311;51.726;5.154;2022-09-02T06:33:09;8.25;;;5.15;;
67442;SDS011;54311;51.726;5.154;2022-09-02T06:35:35;8.35;;;4.32;;
67442;SDS011;54311;51.726;5.154;2022-09-02T06:38:01;5.65;;;4.65;;
67442;SDS011;54311;51.726;5.154;2022-09-02T06:40:26;4.50;;;4.10;;
67442;SDS011;54311;51.726;5.154;2022-09-02T06:42:52;5.72;;;4.00;;
67442;SDS011;54311;51.726;5.154;2022-09-02T06:45:18;7.18;;;4.25;;
67442;SDS011;54311;51.726;5.154;2022-09-02T06:47:43;6.25;;;4.25;;
67442;SDS011;54311;51.726;5.154;2022-09-02T06:50:09;7.05;;;4.85;;
67442;SDS011;54311;51.726;5.154;2022-09-02T06:52:35;8.18;;;4.30;;
67442;SDS011;54311;51.726;5.154;2022-09-02T06:55:00;5.35;;;4.15;;
67442;SDS011;54311;51.726;5.154;2022-09-02T06:57:25;5.53;;;4.20;;
67442;SDS011;54311;51.726;5.154;2022-09-02T06:59:51;6.43;;;4.13;;
67442;SDS011;54311;51.726;5.154;2022-09-02T07:02:16;9.93;;;5.00;;
67442;SDS011;54311;51.726;5.154;2022-09-02T07:04:41;6.10;;;4.13;;
67442;SDS011;54311;51.726;5.154;2022-09-02T07:07:25;5.63;;;4.73;;
67442;SDS011;54311;51.726;5.154;2022-09-02T07:09:50;12.30;;;4.77;;
67442;SDS011;54311;51.726;5.154;2022-09-02T07:12:15;7.45;;;4.78;;
67442;SDS011;54311;51.726;5.154;2022-09-02T07:14:41;11.38;;;4.03;;
67442;SDS011;54311;51.726;5.154;2022-09-02T07:17:08;7.18;;;4.38;;
67442;SDS011;54311;51.726;5.154;2022-09-02T07:19:34;4.78;;;4.38;;
67442;SDS011;54311;51.726;5.154;2022-09-02T07:21:59;11.07;;;4.70;;
67442;SDS011;54311;51.726;5.154;2022-09-02T07:24:26;6.00;;;4.65;;
67442;SDS011;54311;51.726;5.154;2022-09-02T07:26:51;7.53;;;4.60;;
67442;SDS011;54311;51.726;5.154;2022-09-02T07:29:16;10.52;;;4.43;;
67442;SDS011;54311;51.726;5.154;2022-09-02T07:31:43;15.88;;;5.03;;
67442;SDS011;54311;51.726;5.154;2022-09-02T07:34:09;8.60;;;4.97;;
67442;SDS011;54311;51.726;5.154;2022-09-02T07:36:34;9.15;;;4.70;;
67442;SDS011;54311;51.726;5.154;2022-09-02T07:39:00;9.75;;;4.38;;
67442;SDS011;54311;51.726;5.154;2022-09-02T07:41:26;8.52;;;4.82;;
67442;SDS011;54311;51.726;5.154;2022-09-02T07:43:51;9.52;;;4.78;;
67442;SDS011;54311;51.726;5.154;2022-09-02T07:46:17;16.65;;;5.68;;
67442;SDS011;54311;51.726;5.154;2022-09-02T07:48:43;13.55;;;4.30;;
67442;SDS011;54311;51.726;5.154;2022-09-02T07:51:09;6.45;;;4.80;;
67442;SDS011;54311;51.726;5.154;2022-09-02T07:53:34;9.27;;;4.50;;
67442;SDS011;54311;51.726;5.154;2022-09-02T07:56:00;6.68;;;4.25;;
67442;SDS011;54311;51.726;5.154;2022-09-02T07:58:25;14.67;;;4.43;;
67442;SDS011;54311;51.726;5.154;2022-09-02T08:00:51;9.63;;;5.10;;
67442;SDS011;54311;51.726;5.154;2022-09-02T08:03:17;6.40;;;4.88;;
67442;SDS011;54311;51.726;5.154;2022-09-02T08:05:43;9.07;;;6.18;;
67442;SDS011;54311;51.726;5.154;2022-09-02T08:08:10;10.90;;;4.70;;
67442;SDS011;54311;51.726;5.154;2022-09-02T08:10:36;9.03;;;4.90;;
67442;SDS011;54311;51.726;5.154;2022-09-02T08:13:01;8.27;;;4.90;;
67442;SDS011;54311;51.726;5.154;2022-09-02T08:15:27;11.25;;;4.80;;
67442;SDS011;54311;51.726;5.154;2022-09-02T08:17:53;6.00;;;5.18;;
67442;SDS011;54311;51.726;5.154;2022-09-02T08:20:18;6.18;;;4.60;;
67442;SDS011;54311;51.726;5.154;2022-09-02T08:22:44;9.27;;;4.95;;
67442;SDS011;54311;51.726;5.154;2022-09-02T08:25:09;10.07;;;5.10;;
67442;SDS011;54311;51.726;5.154;2022-09-02T08:27:35;8.95;;;4.93;;
67442;SDS011;54311;51.726;5.154;2022-09-02T08:30:00;11.75;;;5.07;;
67442;SDS011;54311;51.726;5.154;2022-09-02T08:32:29;10.80;;;5.43;;
67442;SDS011;54311;51.726;5.154;2022-09-02T08:34:56;14.15;;;5.68;;
67442;SDS011;54311;51.726;5.154;2022-09-02T08:37:22;9.90;;;5.22;;
67442;SDS011;54311;51.726;5.154;2022-09-02T08:39:47;9.87;;;5.70;;
67442;SDS011;54311;51.726;5.154;2022-09-02T08:42:32;6.38;;;5.22;;
67442;SDS011;54311;51.726;5.154;2022-09-02T08:44:59;8.82;;;5.60;;
67442;SDS011;54311;51.726;5.154;2022-09-02T08:47:29;16.83;;;5.72;;
67442;SDS011;54311;51.726;5.154;2022-09-02T08:49:56;12.48;;;5.28;;
67442;SDS011;54311;51.726;5.154;2022-09-02T08:52:30;15.20;;;6.13;;
67442;SDS011;54311;51.726;5.154;2022-09-02T08:54:57;6.13;;;5.30;;
67442;SDS011;54311;51.726;5.154;2022-09-02T08:57:23;9.30;;;5.47;;
67442;SDS011;54311;51.726;5.154;2022-09-02T08:59:51;8.05;;;6.05;;
67442;SDS011;54311;51.726;5.154;2022-09-02T09:02:27;8.13;;;5.63;;
67442;SDS011;54311;51.726;5.154;2022-09-02T09:08:24;10.57;;;6.22;;
67442;SDS011;54311;51.726;5.154;2022-09-02T09:10:23;9.95;;;5.35;;
67442;SDS011;54311;51.726;5.154;2022-09-02T09:18:06;10.65;;;5.85;;
67442;SDS011;54311;51.726;5.154;2022-09-02T09:20:32;15.50;;;5.90;;
67442;SDS011;54311;51.726;5.154;2022-09-02T09:22:59;9.25;;;5.70;;
67442;SDS011;54311;51.726;5.154;2022-09-02T09:25:25;12.25;;;6.03;;
67442;SDS011;54311;51.726;5.154;2022-09-02T09:27:54;18.20;;;5.97;;
67442;SDS011;54311;51.726;5.154;2022-09-02T09:30:20;15.07;;;6.20;;
67442;SDS011;54311;51.726;5.154;2022-09-02T09:32:46;16.27;;;6.30;;
67442;SDS011;54311;51.726;5.154;2022-09-02T09:35:14;10.02;;;6.28;;
67442;SDS011;54311;51.726;5.154;2022-09-02T09:37:40;11.05;;;6.45;;
67442;SDS011;54311;51.726;5.154;2022-09-02T09:42:53;7.28;;;5.55;;
67442;SDS011;54311;51.726;5.154;2022-09-02T09:45:21;11.82;;;6.03;;
67442;SDS011;54311;51.726;5.154;2022-09-02T09:48:05;11.45;;;5.97;;
67442;SDS011;54311;51.726;5.154;2022-09-02T09:50:32;13.52;;;6.10;;
67442;SDS011;54311;51.726;5.154;2022-09-02T09:58:19;6.95;;;6.05;;
67442;SDS011;54311;51.726;5.154;2022-09-02T10:00:44;9.13;;;5.40;;
67442;SDS011;54311;51.726;5.154;2022-09-02T10:03:16;10.27;;;6.23;;
67442;SDS011;54311;51.726;5.154;2022-09-02T10:05:43;8.05;;;5.82;;
67442;SDS011;54311;51.726;5.154;2022-09-02T10:10:39;23.77;;;6.20;;
67442;SDS011;54311;51.726;5.154;2022-09-02T10:13:20;15.88;;;6.03;;
67442;SDS011;54311;51.726;5.154;2022-09-02T10:18:23;14.95;;;6.60;;
67442;SDS011;54311;51.726;5.154;2022-09-02T10:20:59;14.25;;;6.43;;
67442;SDS011;54311;51.726;5.154;2022-09-02T10:23:35;9.35;;;5.13;;
67442;SDS011;54311;51.726;5.154;2022-09-02T10:31:31;13.70;;;5.40;;
67442;SDS011;54311;51.726;5.154;2022-09-02T10:36:33;14.55;;;4.97;;
67442;SDS011;54311;51.726;5.154;2022-09-02T10:39:03;11.38;;;5.63;;
67442;SDS011;54311;51.726;5.154;2022-09-02T10:46:43;9.02;;;4.85;;
67442;SDS011;54311;51.726;5.154;2022-09-02T10:51:44;9.52;;;5.22;;
67442;SDS011;54311;51.726;5.154;2022-09-02T10:57:05;6.13;;;5.10;;
67442;SDS011;54311;51.726;5.154;2022-09-02T10:59:37;6.45;;;5.13;;
67442;SDS011;54311;51.726;5.154;2022-09-02T11:02:11;15.68;;;5.85;;
67442;SDS011;54311;51.726;5.154;2022-09-02T11:04:39;7.53;;;4.95;;
67442;SDS011;54311;51.726;5.154;2022-09-02T11:07:07;5.18;;;4.68;;
67442;SDS011;54311;51.726;5.154;2022-09-02T11:09:39;9.05;;;5.38;;
67442;SDS011;54311;51.726;5.154;2022-09-02T11:12:10;10.50;;;5.40;;
67442;SDS011;54311;51.726;5.154;2022-09-02T11:17:18;12.68;;;6.78;;
67442;SDS011;54311;51.726;5.154;2022-09-02T11:27:23;11.05;;;5.93;;
67442;SDS011;54311;51.726;5.154;2022-09-02T11:30:00;16.90;;;6.07;;
67442;SDS011;54311;51.726;5.154;2022-09-02T11:35:02;14.20;;;6.45;;
67442;SDS011;54311;51.726;5.154;2022-09-02T11:37:38;17.35;;;6.03;;
67442;SDS011;54311;51.726;5.154;2022-09-02T11:40:08;9.55;;;7.10;;
67442;SDS011;54311;51.726;5.154;2022-09-02T11:45:22;15.30;;;6.03;;
67442;SDS011;54311;51.726;5.154;2022-09-02T11:50:47;11.10;;;6.90;;
67442;SDS011;54311;51.726;5.154;2022-09-02T11:53:25;10.07;;;5.20;;
67442;SDS011;54311;51.726;5.154;2022-09-02T11:55:56;12.40;;;4.97;;
67442;SDS011;54311;51.726;5.154;2022-09-02T11:58:33;6.78;;;5.10;;
67442;SDS011;54311;51.726;5.154;2022-09-02T12:03:40;6.50;;;4.28;;
67442;SDS011;54311;51.726;5.154;2022-09-02T12:06:08;9.10;;;4.63;;
67442;SDS011;54311;51.726;5.154;2022-09-02T12:11:01;5.40;;;3.28;;
67442;SDS011;54311;51.726;5.154;2022-09-02T12:13:38;3.95;;;3.30;;
67442;SDS011;54311;51.726;5.154;2022-09-02T12:21:19;5.90;;;3.15;;
67442;SDS011;54311;51.726;5.154;2022-09-02T12:26:14;6.15;;;3.80;;
67442;SDS011;54311;51.726;5.154;2022-09-02T12:28:40;5.95;;;3.55;;
67442;SDS011;54311;51.726;5.154;2022-09-02T12:31:07;4.53;;;3.25;;
67442;SDS011;54311;51.726;5.154;2022-09-02T12:33:37;3.15;;;2.95;;
67442;SDS011;54311;51.726;5.154;2022-09-02T12:36:03;3.80;;;2.63;;
67442;SDS011;54311;51.726;5.154;2022-09-02T12:40:59;3.13;;;2.43;;
67442;SDS011;54311;51.726;5.154;2022-09-02T12:43:26;6.07;;;2.75;;
67442;SDS011;54311;51.726;5.154;2022-09-02T12:45:56;6.65;;;2.40;;
67442;SDS011;54311;51.726;5.154;2022-09-02T12:48:26;5.25;;;2.58;;
67442;SDS011;54311;51.726;5.154;2022-09-02T12:50:54;7.03;;;2.20;;
67442;SDS011;54311;51.726;5.154;2022-09-02T12:55:59;2.72;;;2.40;;
67442;SDS011;54311;51.726;5.154;2022-09-02T12:58:37;5.80;;;2.75;;
67442;SDS011;54311;51.726;5.154;2022-09-02T13:03:46;11.18;;;2.55;;
67442;SDS011;54311;51.726;5.154;2022-09-02T13:17:02;5.45;;;3.00;;
67442;SDS011;54311;51.726;5.154;2022-09-02T13:19:42;3.05;;;2.85;;
67442;SDS011;54311;51.726;5.154;2022-09-02T13:32:54;9.75;;;3.33;;
67442;SDS011;54311;51.726;5.154;2022-09-02T13:37:48;4.20;;;3.08;;
67442;SDS011;54311;51.726;5.154;2022-09-02T13:42:48;8.87;;;2.87;;
67442;SDS011;54311;51.726;5.154;2022-09-02T13:45:18;7.30;;;2.70;;
67442;SDS011;54311;51.726;5.154;2022-09-02T13:47:44;2.53;;;2.33;;
67442;SDS011;54311;51.726;5.154;2022-09-02T13:50:11;4.85;;;2.42;;
67442;SDS011;54311;51.726;5.154;2022-09-02T13:52:37;5.22;;;3.00;;
67442;SDS011;54311;51.726;5.154;2022-09-02T13:55:04;3.75;;;2.47;;
67442;SDS011;54311;51.726;5.154;2022-09-02T13:57:30;9.85;;;2.63;;
67442;SDS011;54311;51.726;5.154;2022-09-02T13:59:55;12.10;;;2.45;;
67442;SDS011;54311;51.726;5.154;2022-09-02T14:02:31;5.30;;;2.33;;
67442;SDS011;54311;51.726;5.154;2022-09-02T14:05:01;8.93;;;2.63;;
67442;SDS011;54311;51.726;5.154;2022-09-02T14:07:29;5.22;;;2.90;;
67442;SDS011;54311;51.726;5.154;2022-09-02T14:09:55;4.63;;;3.03;;
67442;SDS011;54311;51.726;5.154;2022-09-02T14:12:22;5.35;;;3.20;;
67442;SDS011;54311;51.726;5.154;2022-09-02T14:14:48;4.15;;;2.95;;
67442;SDS011;54311;51.726;5.154;2022-09-02T14:17:24;3.73;;;2.80;;
67442;SDS011;54311;51.726;5.154;2022-09-02T14:19:50;4.60;;;2.90;;
67442;SDS011;54311;51.726;5.154;2022-09-02T14:22:50;6.07;;;3.97;;
67442;SDS011;54311;51.726;5.154;2022-09-02T14:25:13;6.25;;;3.22;;
67442;SDS011;54311;51.726;5.154;2022-09-02T14:27:39;8.82;;;2.70;;
67442;SDS011;54311;51.726;5.154;2022-09-02T14:30:28;2.63;;;2.53;;
67442;SDS011;54311;51.726;5.154;2022-09-02T14:38:02;8.90;;;2.50;;
67442;SDS011;54311;51.726;5.154;2022-09-02T14:40:37;5.73;;;2.53;;
67442;SDS011;54311;51.726;5.154;2022-09-02T14:43:03;4.57;;;2.95;;
67442;SDS011;54311;51.726;5.154;2022-09-02T14:45:34;12.48;;;2.53;;
67442;SDS011;54311;51.726;5.154;2022-09-02T14:48:00;2.93;;;2.60;;
67442;SDS011;54311;51.726;5.154;2022-09-02T14:50:29;10.93;;;3.00;;
67442;SDS011;54311;51.726;5.154;2022-09-02T14:52:57;3.92;;;2.05;;
67442;SDS011;54311;51.726;5.154;2022-09-02T14:58:06;2.67;;;2.33;;
67442;SDS011;54311;51.726;5.154;2022-09-02T15:00:32;3.80;;;2.30;;
67442;SDS011;54311;51.726;5.154;2022-09-02T15:02:57;4.10;;;2.20;;
67442;SDS011;54311;51.726;5.154;2022-09-02T15:05:24;10.57;;;2.85;;
67442;SDS011;54311;51.726;5.154;2022-09-02T15:07:50;8.70;;;2.70;;
67442;SDS011;54311;51.726;5.154;2022-09-02T15:10:15;4.57;;;2.65;;
67442;SDS011;54311;51.726;5.154;2022-09-02T15:12:48;5.53;;;3.20;;
67442;SDS011;54311;51.726;5.154;2022-09-02T15:15:13;11.85;;;2.78;;
67442;SDS011;54311;51.726;5.154;2022-09-02T15:17:39;8.60;;;3.25;;
67442;SDS011;54311;51.726;5.154;2022-09-02T15:20:04;3.50;;;3.20;;
67442;SDS011;54311;51.726;5.154;2022-09-02T15:22:31;3.70;;;2.85;;
67442;SDS011;54311;51.726;5.154;2022-09-02T15:24:56;3.77;;;2.80;;
67442;SDS011;54311;51.726;5.154;2022-09-02T15:27:21;3.33;;;2.50;;
67442;SDS011;54311;51.726;5.154;2022-09-02T15:29:46;3.60;;;2.30;;
67442;SDS011;54311;51.726;5.154;2022-09-02T15:32:12;5.35;;;2.70;;
67442;SDS011;54311;51.726;5.154;2022-09-02T15:34:37;8.77;;;2.77;;
67442;SDS011;54311;51.726;5.154;2022-09-02T15:37:03;5.35;;;2.58;;
67442;SDS011;54311;51.726;5.154;2022-09-02T15:39:28;5.20;;;2.03;;
67442;SDS011;54311;51.726;5.154;2022-09-02T15:41:54;6.53;;;2.58;;
67442;SDS011;54311;51.726;5.154;2022-09-02T15:44:20;2.22;;;2.08;;
67442;SDS011;54311;51.726;5.154;2022-09-02T15:46:45;5.47;;;2.50;;
67442;SDS011;54311;51.726;5.154;2022-09-02T15:49:12;3.67;;;2.50;;
67442;SDS011;54311;51.726;5.154;2022-09-02T15:51:37;5.68;;;2.83;;
67442;SDS011;54311;51.726;5.154;2022-09-02T15:54:04;3.83;;;2.45;;
67442;SDS011;54311;51.726;5.154;2022-09-02T15:56:30;3.25;;;2.60;;
67442;SDS011;54311;51.726;5.154;2022-09-02T15:59:00;5.97;;;2.65;;
67442;SDS011;54311;51.726;5.154;2022-09-02T16:01:26;4.28;;;2.40;;
67442;SDS011;54311;51.726;5.154;2022-09-02T16:03:52;2.70;;;2.50;;
67442;SDS011;54311;51.726;5.154;2022-09-02T16:06:17;4.80;;;2.60;;
67442;SDS011;54311;51.726;5.154;2022-09-02T16:11:19;6.30;;;2.50;;
67442;SDS011;54311;51.726;5.154;2022-09-02T16:13:44;11.52;;;2.45;;
67442;SDS011;54311;51.726;5.154;2022-09-02T16:16:10;6.70;;;2.60;;
67442;SDS011;54311;51.726;5.154;2022-09-02T16:18:36;5.72;;;2.10;;
67442;SDS011;54311;51.726;5.154;2022-09-02T16:21:02;3.63;;;2.10;;
67442;SDS011;54311;51.726;5.154;2022-09-02T16:23:28;3.92;;;1.95;;
67442;SDS011;54311;51.726;5.154;2022-09-02T16:26:06;2.25;;;2.03;;
67442;SDS011;54311;51.726;5.154;2022-09-02T16:28:39;11.45;;;2.20;;
67442;SDS011;54311;51.726;5.154;2022-09-02T16:31:05;3.25;;;2.30;;
67442;SDS011;54311;51.726;5.154;2022-09-02T16:33:30;9.52;;;2.65;;
67442;SDS011;54311;51.726;5.154;2022-09-02T16:35:56;9.15;;;2.50;;
67442;SDS011;54311;51.726;5.154;2022-09-02T16:38:21;5.50;;;2.20;;
67442;SDS011;54311;51.726;5.154;2022-09-02T16:40:55;6.13;;;2.40;;
67442;SDS011;54311;51.726;5.154;2022-09-02T16:43:21;7.93;;;2.22;;